sensor_id;sensor_type;location;lat;lon;timestamp;pressure;altitude;pressure_sealevel;temperature;humidity
54144;BME280;40050;47.324;18.792;2022-09-01T00:01:16;1003.94;;;23.00;61.74
54144;BME280;40050;47.324;18.792;2022-09-01T00:03:18;1003.95;;;22.98;61.71
54144;BME280;40050;47.324;18.792;2022-09-01T00:05:20;1003.92;;;22.90;61.94
54144;BME280;40050;47.324;18.792;2022-09-01T00:07:21;1003.90;;;22.87;61.95
54144;BME280;40050;47.324;18.792;2022-09-01T00:09:22;1003.89;;;22.81;62.26
54144;BME280;40050;47.324;18.792;2022-09-01T00:11:24;1003.87;;;22.76;62.41
54144;BME280;40050;47.324;18.792;2022-09-01T00:13:25;1003.90;;;22.74;62.56
54144;BME280;40050;47.324;18.792;2022-09-01T00:15:26;1003.92;;;22.73;62.91
54144;BME280;40050;47.324;18.792;2022-09-01T00:17:27;1003.89;;;22.70;62.91
54144;BME280;40050;47.324;18.792;2022-09-01T00:19:27;1003.90;;;22.67;62.94
54144;BME280;40050;47.324;18.792;2022-09-01T00:21:31;1003.88;;;22.64;63.23
54144;BME280;40050;47.324;18.792;2022-09-01T00:23:32;1003.86;;;22.64;63.06
54144;BME280;40050;47.324;18.792;2022-09-01T00:25:33;1003.85;;;22.64;62.76
54144;BME280;40050;47.324;18.792;2022-09-01T00:27:34;1003.77;;;22.55;61.99
54144;BME280;40050;47.324;18.792;2022-09-01T00:29:35;1003.79;;;22.54;62.01
54144;BME280;40050;47.324;18.792;2022-09-01T00:31:36;1003.72;;;22.40;62.32
54144;BME280;40050;47.324;18.792;2022-09-01T00:33:37;1003.79;;;22.35;62.67
54144;BME280;40050;47.324;18.792;2022-09-01T00:35:38;1003.80;;;22.28;62.51
54144;BME280;40050;47.324;18.792;2022-09-01T00:37:39;1003.89;;;22.19;62.71
54144;BME280;40050;47.324;18.792;2022-09-01T00:39:40;1003.92;;;22.13;62.94
54144;BME280;40050;47.324;18.792;2022-09-01T00:41:41;1003.68;;;21.93;63.09
54144;BME280;40050;47.324;18.792;2022-09-01T00:43:43;1003.86;;;21.96;63.42
54144;BME280;40050;47.324;18.792;2022-09-01T00:45:44;1003.90;;;21.94;63.55
54144;BME280;40050;47.324;18.792;2022-09-01T00:47:46;1003.86;;;21.81;63.35
54144;BME280;40050;47.324;18.792;2022-09-01T00:49:47;1003.90;;;21.75;63.20
54144;BME280;40050;47.324;18.792;2022-09-01T00:51:53;1003.89;;;21.71;63.52
54144;BME280;40050;47.324;18.792;2022-09-01T00:53:55;1003.85;;;21.64;63.44
54144;BME280;40050;47.324;18.792;2022-09-01T00:55:56;1003.78;;;21.48;63.75
54144;BME280;40050;47.324;18.792;2022-09-01T00:57:57;1003.75;;;21.46;63.87
54144;BME280;40050;47.324;18.792;2022-09-01T01:00:01;1003.79;;;21.47;63.85
54144;BME280;40050;47.324;18.792;2022-09-01T01:02:03;1003.81;;;21.41;64.03
54144;BME280;40050;47.324;18.792;2022-09-01T01:04:05;1003.81;;;21.40;64.18
54144;BME280;40050;47.324;18.792;2022-09-01T01:06:06;1003.75;;;21.35;64.08
54144;BME280;40050;47.324;18.792;2022-09-01T01:08:08;1003.73;;;21.33;64.16
54144;BME280;40050;47.324;18.792;2022-09-01T01:10:10;1003.77;;;21.31;64.53
54144;BME280;40050;47.324;18.792;2022-09-01T01:12:11;1003.78;;;21.26;64.99
54144;BME280;40050;47.324;18.792;2022-09-01T01:14:12;1003.76;;;21.28;64.73
54144;BME280;40050;47.324;18.792;2022-09-01T01:16:14;1003.74;;;21.22;64.70
54144;BME280;40050;47.324;18.792;2022-09-01T01:18:15;1003.76;;;21.15;64.69
54144;BME280;40050;47.324;18.792;2022-09-01T01:20:16;1003.81;;;21.13;64.29
54144;BME280;40050;47.324;18.792;2022-09-01T01:22:21;1003.77;;;21.06;64.55
54144;BME280;40050;47.324;18.792;2022-09-01T01:24:27;1003.81;;;21.03;64.20
54144;BME280;40050;47.324;18.792;2022-09-01T01:26:28;1003.80;;;20.90;64.61
54144;BME280;40050;47.324;18.792;2022-09-01T01:28:30;1003.82;;;20.80;65.26
54144;BME280;40050;47.324;18.792;2022-09-01T01:30:32;1003.79;;;20.74;65.10
54144;BME280;40050;47.324;18.792;2022-09-01T01:32:33;1003.72;;;20.67;65.85
54144;BME280;40050;47.324;18.792;2022-09-01T01:34:34;1003.76;;;20.65;66.01
54144;BME280;40050;47.324;18.792;2022-09-01T01:36:35;1003.76;;;20.60;66.13
54144;BME280;40050;47.324;18.792;2022-09-01T01:38:37;1003.80;;;20.57;66.59
54144;BME280;40050;47.324;18.792;2022-09-01T01:40:39;1003.76;;;20.53;66.91
54144;BME280;40050;47.324;18.792;2022-09-01T01:42:48;1003.74;;;20.49;66.62
54144;BME280;40050;47.324;18.792;2022-09-01T01:44:49;1003.75;;;20.42;66.82
54144;BME280;40050;47.324;18.792;2022-09-01T01:46:51;1003.71;;;20.39;66.94
54144;BME280;40050;47.324;18.792;2022-09-01T01:48:52;1003.70;;;20.33;67.33
54144;BME280;40050;47.324;18.792;2022-09-01T01:50:53;1003.66;;;20.33;67.38
54144;BME280;40050;47.324;18.792;2022-09-01T01:52:55;1003.66;;;20.34;67.30
54144;BME280;40050;47.324;18.792;2022-09-01T01:54:56;1003.68;;;20.27;67.32
54144;BME280;40050;47.324;18.792;2022-09-01T01:56:57;1003.77;;;20.23;67.61
54144;BME280;40050;47.324;18.792;2022-09-01T01:58:58;1003.80;;;20.24;67.72
54144;BME280;40050;47.324;18.792;2022-09-01T02:00:59;1003.73;;;20.19;67.73
54144;BME280;40050;47.324;18.792;2022-09-01T02:03:00;1003.77;;;20.18;67.39
54144;BME280;40050;47.324;18.792;2022-09-01T02:05:01;1003.73;;;20.14;67.27
54144;BME280;40050;47.324;18.792;2022-09-01T02:07:02;1003.75;;;20.11;67.75
54144;BME280;40050;47.324;18.792;2022-09-01T02:09:03;1003.77;;;20.09;68.03
54144;BME280;40050;47.324;18.792;2022-09-01T02:11:05;1003.73;;;20.05;68.06
54144;BME280;40050;47.324;18.792;2022-09-01T02:13:06;1003.76;;;20.04;68.16
54144;BME280;40050;47.324;18.792;2022-09-01T02:15:07;1003.76;;;20.04;68.51
54144;BME280;40050;47.324;18.792;2022-09-01T02:17:09;1003.72;;;20.01;68.43
54144;BME280;40050;47.324;18.792;2022-09-01T02:19:10;1003.72;;;20.01;68.52
54144;BME280;40050;47.324;18.792;2022-09-01T02:21:10;1003.65;;;19.97;68.28
54144;BME280;40050;47.324;18.792;2022-09-01T02:23:11;1003.64;;;19.97;68.33
54144;BME280;40050;47.324;18.792;2022-09-01T02:25:12;1003.62;;;19.93;68.44
54144;BME280;40050;47.324;18.792;2022-09-01T02:27:13;1003.64;;;19.96;68.20
54144;BME280;40050;47.324;18.792;2022-09-01T02:29:16;1003.64;;;19.89;68.40
54144;BME280;40050;47.324;18.792;2022-09-01T02:31:17;1003.71;;;19.92;68.11
54144;BME280;40050;47.324;18.792;2022-09-01T02:33:18;1003.74;;;19.83;68.60
54144;BME280;40050;47.324;18.792;2022-09-01T02:35:19;1003.78;;;19.85;69.06
54144;BME280;40050;47.324;18.792;2022-09-01T02:37:20;1003.83;;;19.87;68.77
54144;BME280;40050;47.324;18.792;2022-09-01T02:39:24;1003.89;;;19.89;69.32
54144;BME280;40050;47.324;18.792;2022-09-01T02:41:25;1003.84;;;19.91;69.63
54144;BME280;40050;47.324;18.792;2022-09-01T02:43:26;1003.84;;;19.93;69.66
54144;BME280;40050;47.324;18.792;2022-09-01T02:45:27;1003.73;;;19.94;69.71
54144;BME280;40050;47.324;18.792;2022-09-01T02:47:28;1003.72;;;19.98;69.87
54144;BME280;40050;47.324;18.792;2022-09-01T02:49:29;1003.71;;;20.01;69.85
54144;BME280;40050;47.324;18.792;2022-09-01T02:51:30;1003.63;;;20.04;69.41
54144;BME280;40050;47.324;18.792;2022-09-01T02:53:31;1003.68;;;20.08;69.38
54144;BME280;40050;47.324;18.792;2022-09-01T02:55:32;1003.68;;;20.06;69.13
54144;BME280;40050;47.324;18.792;2022-09-01T02:57:33;1003.69;;;20.08;69.43
54144;BME280;40050;47.324;18.792;2022-09-01T02:59:34;1003.71;;;20.09;69.28
54144;BME280;40050;47.324;18.792;2022-09-01T03:01:35;1003.77;;;20.11;69.06
54144;BME280;40050;47.324;18.792;2022-09-01T03:03:36;1003.83;;;20.14;69.28
54144;BME280;40050;47.324;18.792;2022-09-01T03:05:37;1003.84;;;20.14;69.10
54144;BME280;40050;47.324;18.792;2022-09-01T03:07:38;1003.87;;;20.16;69.06
54144;BME280;40050;47.324;18.792;2022-09-01T03:09:39;1003.85;;;20.17;68.91
54144;BME280;40050;47.324;18.792;2022-09-01T03:11:40;1003.75;;;20.13;68.64
54144;BME280;40050;47.324;18.792;2022-09-01T03:13:42;1003.77;;;20.16;68.77
54144;BME280;40050;47.324;18.792;2022-09-01T03:15:43;1003.78;;;20.16;68.86
54144;BME280;40050;47.324;18.792;2022-09-01T03:17:44;1003.74;;;20.14;68.88
54144;BME280;40050;47.324;18.792;2022-09-01T03:19:45;1003.78;;;20.16;69.21
54144;BME280;40050;47.324;18.792;2022-09-01T03:21:46;1003.77;;;20.18;68.56
54144;BME280;40050;47.324;18.792;2022-09-01T03:23:47;1003.72;;;20.18;68.66
54144;BME280;40050;47.324;18.792;2022-09-01T03:25:48;1003.66;;;20.19;68.09
54144;BME280;40050;47.324;18.792;2022-09-01T03:27:50;1003.64;;;20.19;67.97
54144;BME280;40050;47.324;18.792;2022-09-01T03:29:51;1003.58;;;20.20;67.94
54144;BME280;40050;47.324;18.792;2022-09-01T03:31:52;1003.55;;;20.17;68.04
54144;BME280;40050;47.324;18.792;2022-09-01T03:33:53;1003.55;;;20.14;68.06
54144;BME280;40050;47.324;18.792;2022-09-01T03:35:55;1003.55;;;20.12;68.11
54144;BME280;40050;47.324;18.792;2022-09-01T03:37:56;1003.49;;;20.09;68.07
54144;BME280;40050;47.324;18.792;2022-09-01T03:39:58;1003.42;;;20.06;67.85
54144;BME280;40050;47.324;18.792;2022-09-01T03:41:59;1003.48;;;20.00;67.69
54144;BME280;40050;47.324;18.792;2022-09-01T03:44:00;1003.47;;;19.98;67.91
54144;BME280;40050;47.324;18.792;2022-09-01T03:46:01;1003.46;;;19.94;67.75
54144;BME280;40050;47.324;18.792;2022-09-01T03:48:02;1003.47;;;19.94;67.71
54144;BME280;40050;47.324;18.792;2022-09-01T03:50:03;1003.45;;;19.83;68.09
54144;BME280;40050;47.324;18.792;2022-09-01T03:52:04;1003.44;;;19.80;68.39
54144;BME280;40050;47.324;18.792;2022-09-01T03:54:05;1003.44;;;19.77;68.38
54144;BME280;40050;47.324;18.792;2022-09-01T03:56:06;1003.39;;;19.74;67.97
54144;BME280;40050;47.324;18.792;2022-09-01T03:58:08;1003.43;;;19.69;68.26
54144;BME280;40050;47.324;18.792;2022-09-01T04:00:09;1003.44;;;19.67;68.16
54144;BME280;40050;47.324;18.792;2022-09-01T04:02:10;1003.39;;;19.60;68.44
54144;BME280;40050;47.324;18.792;2022-09-01T04:04:11;1003.48;;;19.59;68.55
54144;BME280;40050;47.324;18.792;2022-09-01T04:06:13;1003.52;;;19.50;68.97
54144;BME280;40050;47.324;18.792;2022-09-01T04:08:14;1003.55;;;19.50;68.84
54144;BME280;40050;47.324;18.792;2022-09-01T04:10:16;1003.49;;;19.46;68.90
54144;BME280;40050;47.324;18.792;2022-09-01T04:12:17;1003.53;;;19.46;69.13
54144;BME280;40050;47.324;18.792;2022-09-01T04:14:18;1003.55;;;19.45;68.75
54144;BME280;40050;47.324;18.792;2022-09-01T04:16:21;1003.55;;;19.44;68.87
54144;BME280;40050;47.324;18.792;2022-09-01T04:18:22;1003.58;;;19.39;68.77
54144;BME280;40050;47.324;18.792;2022-09-01T04:20:23;1003.59;;;19.38;68.98
54144;BME280;40050;47.324;18.792;2022-09-01T04:22:24;1003.65;;;19.33;69.50
54144;BME280;40050;47.324;18.792;2022-09-01T04:24:26;1003.63;;;19.31;69.74
54144;BME280;40050;47.324;18.792;2022-09-01T04:26:27;1003.60;;;19.30;70.13
54144;BME280;40050;47.324;18.792;2022-09-01T04:28:31;1003.61;;;19.31;70.20
54144;BME280;40050;47.324;18.792;2022-09-01T04:30:33;1003.66;;;19.33;70.46
54144;BME280;40050;47.324;18.792;2022-09-01T04:32:34;1003.66;;;19.34;70.45
54144;BME280;40050;47.324;18.792;2022-09-01T04:34:35;1003.63;;;19.36;70.36
54144;BME280;40050;47.324;18.792;2022-09-01T04:36:36;1003.56;;;19.36;70.64
54144;BME280;40050;47.324;18.792;2022-09-01T04:38:37;1003.59;;;19.36;70.32
54144;BME280;40050;47.324;18.792;2022-09-01T04:40:38;1003.59;;;19.33;69.59
54144;BME280;40050;47.324;18.792;2022-09-01T04:42:39;1003.65;;;19.30;70.08
54144;BME280;40050;47.324;18.792;2022-09-01T04:44:40;1003.68;;;19.32;70.06
54144;BME280;40050;47.324;18.792;2022-09-01T04:46:41;1003.65;;;19.29;69.64
54144;BME280;40050;47.324;18.792;2022-09-01T04:48:43;1003.63;;;19.31;69.91
54144;BME280;40050;47.324;18.792;2022-09-01T04:50:44;1003.65;;;19.28;69.93
54144;BME280;40050;47.324;18.792;2022-09-01T04:52:45;1003.65;;;19.24;69.82
54144;BME280;40050;47.324;18.792;2022-09-01T04:54:46;1003.70;;;19.20;70.08
54144;BME280;40050;47.324;18.792;2022-09-01T04:56:48;1003.73;;;19.18;70.57
54144;BME280;40050;47.324;18.792;2022-09-01T04:58:50;1003.76;;;19.20;70.92
54144;BME280;40050;47.324;18.792;2022-09-01T05:00:51;1003.71;;;19.15;71.13
54144;BME280;40050;47.324;18.792;2022-09-01T05:02:56;1003.77;;;19.16;71.06
54144;BME280;40050;47.324;18.792;2022-09-01T05:04:57;1003.79;;;19.19;71.05
54144;BME280;40050;47.324;18.792;2022-09-01T05:06:58;1003.75;;;19.18;71.25
54144;BME280;40050;47.324;18.792;2022-09-01T05:09:00;1003.77;;;19.19;71.38
54144;BME280;40050;47.324;18.792;2022-09-01T05:11:02;1003.84;;;19.24;71.26
54144;BME280;40050;47.324;18.792;2022-09-01T05:13:03;1003.86;;;19.25;70.61
54144;BME280;40050;47.324;18.792;2022-09-01T05:15:04;1003.82;;;19.25;70.57
54144;BME280;40050;47.324;18.792;2022-09-01T05:17:05;1003.81;;;19.27;70.89
54144;BME280;40050;47.324;18.792;2022-09-01T05:19:07;1003.79;;;19.27;70.80
54144;BME280;40050;47.324;18.792;2022-09-01T05:21:08;1003.78;;;19.31;71.22
54144;BME280;40050;47.324;18.792;2022-09-01T05:23:09;1003.77;;;19.32;70.98
54144;BME280;40050;47.324;18.792;2022-09-01T05:25:11;1003.78;;;19.32;70.70
54144;BME280;40050;47.324;18.792;2022-09-01T05:27:11;1003.78;;;19.32;70.19
54144;BME280;40050;47.324;18.792;2022-09-01T05:29:15;1003.82;;;19.30;70.53
54144;BME280;40050;47.324;18.792;2022-09-01T05:31:16;1003.86;;;19.31;70.72
54144;BME280;40050;47.324;18.792;2022-09-01T05:33:17;1003.84;;;19.33;70.97
54144;BME280;40050;47.324;18.792;2022-09-01T05:35:18;1003.82;;;19.33;70.78
54144;BME280;40050;47.324;18.792;2022-09-01T05:37:19;1003.78;;;19.30;71.08
54144;BME280;40050;47.324;18.792;2022-09-01T05:39:20;1003.76;;;19.29;70.47
54144;BME280;40050;47.324;18.792;2022-09-01T05:41:21;1003.80;;;19.31;70.56
54144;BME280;40050;47.324;18.792;2022-09-01T05:43:22;1003.80;;;19.33;70.67
54144;BME280;40050;47.324;18.792;2022-09-01T05:45:23;1003.81;;;19.32;70.58
54144;BME280;40050;47.324;18.792;2022-09-01T05:47:24;1003.82;;;19.30;70.64
54144;BME280;40050;47.324;18.792;2022-09-01T05:49:25;1003.79;;;19.31;70.96
54144;BME280;40050;47.324;18.792;2022-09-01T05:51:27;1003.75;;;19.33;71.13
54144;BME280;40050;47.324;18.792;2022-09-01T05:53:28;1003.73;;;19.35;71.40
54144;BME280;40050;47.324;18.792;2022-09-01T05:55:29;1003.71;;;19.38;71.43
54144;BME280;40050;47.324;18.792;2022-09-01T05:57:30;1003.72;;;19.39;71.46
54144;BME280;40050;47.324;18.792;2022-09-01T05:59:31;1003.79;;;19.41;71.28
54144;BME280;40050;47.324;18.792;2022-09-01T06:01:32;1003.82;;;19.42;71.41
54144;BME280;40050;47.324;18.792;2022-09-01T06:03:33;1003.83;;;19.43;71.48
54144;BME280;40050;47.324;18.792;2022-09-01T06:05:34;1003.82;;;19.44;71.58
54144;BME280;40050;47.324;18.792;2022-09-01T06:07:35;1003.84;;;19.45;71.58
54144;BME280;40050;47.324;18.792;2022-09-01T06:09:40;1003.80;;;19.46;71.42
54144;BME280;40050;47.324;18.792;2022-09-01T06:11:41;1003.82;;;19.50;71.36
54144;BME280;40050;47.324;18.792;2022-09-01T06:13:45;1003.78;;;19.49;71.00
54144;BME280;40050;47.324;18.792;2022-09-01T06:15:47;1003.82;;;19.51;70.98
54144;BME280;40050;47.324;18.792;2022-09-01T06:17:48;1003.79;;;19.51;70.91
54144;BME280;40050;47.324;18.792;2022-09-01T06:19:50;1003.87;;;19.53;71.00
54144;BME280;40050;47.324;18.792;2022-09-01T06:21:51;1003.87;;;19.53;71.00
54144;BME280;40050;47.324;18.792;2022-09-01T06:23:52;1003.93;;;19.55;71.25
54144;BME280;40050;47.324;18.792;2022-09-01T06:25:53;1003.95;;;19.54;70.64
54144;BME280;40050;47.324;18.792;2022-09-01T06:27:55;1003.97;;;19.51;70.93
54144;BME280;40050;47.324;18.792;2022-09-01T06:29:56;1003.96;;;19.49;71.10
54144;BME280;40050;47.324;18.792;2022-09-01T06:31:57;1003.95;;;19.50;70.93
54144;BME280;40050;47.324;18.792;2022-09-01T06:33:59;1003.96;;;19.54;70.90
54144;BME280;40050;47.324;18.792;2022-09-01T06:36:01;1004.03;;;19.55;70.78
54144;BME280;40050;47.324;18.792;2022-09-01T06:38:02;1004.03;;;19.56;70.57
54144;BME280;40050;47.324;18.792;2022-09-01T06:40:04;1004.08;;;19.57;70.68
54144;BME280;40050;47.324;18.792;2022-09-01T06:42:05;1004.06;;;19.51;70.66
54144;BME280;40050;47.324;18.792;2022-09-01T06:44:06;1004.12;;;19.52;70.40
54144;BME280;40050;47.324;18.792;2022-09-01T06:46:07;1004.09;;;19.53;70.40
54144;BME280;40050;47.324;18.792;2022-09-01T06:48:09;1004.07;;;19.55;70.66
54144;BME280;40050;47.324;18.792;2022-09-01T06:50:10;1004.08;;;19.56;70.71
54144;BME280;40050;47.324;18.792;2022-09-01T06:52:12;1004.16;;;19.58;70.43
54144;BME280;40050;47.324;18.792;2022-09-01T06:54:12;1004.15;;;19.54;70.71
54144;BME280;40050;47.324;18.792;2022-09-01T06:56:13;1004.21;;;19.56;70.53
54144;BME280;40050;47.324;18.792;2022-09-01T06:58:14;1004.23;;;19.60;70.64
54144;BME280;40050;47.324;18.792;2022-09-01T07:00:15;1004.20;;;19.63;70.68
54144;BME280;40050;47.324;18.792;2022-09-01T07:02:16;1004.20;;;19.66;70.64
54144;BME280;40050;47.324;18.792;2022-09-01T07:04:17;1004.18;;;19.62;70.35
54144;BME280;40050;47.324;18.792;2022-09-01T07:06:19;1004.23;;;19.64;70.01
54144;BME280;40050;47.324;18.792;2022-09-01T07:08:21;1004.33;;;19.66;70.24
54144;BME280;40050;47.324;18.792;2022-09-01T07:10:23;1004.33;;;19.67;70.10
54144;BME280;40050;47.324;18.792;2022-09-01T07:12:25;1004.31;;;19.66;69.42
54144;BME280;40050;47.324;18.792;2022-09-01T07:14:25;1004.36;;;19.66;69.29
54144;BME280;40050;47.324;18.792;2022-09-01T07:16:27;1004.35;;;19.66;69.56
54144;BME280;40050;47.324;18.792;2022-09-01T07:18:28;1004.37;;;19.67;69.48
54144;BME280;40050;47.324;18.792;2022-09-01T07:20:30;1004.34;;;19.69;69.28
54144;BME280;40050;47.324;18.792;2022-09-01T07:22:30;1004.36;;;19.64;68.89
54144;BME280;40050;47.324;18.792;2022-09-01T07:24:32;1004.33;;;19.62;69.50
54144;BME280;40050;47.324;18.792;2022-09-01T07:26:33;1004.34;;;19.63;69.43
54144;BME280;40050;47.324;18.792;2022-09-01T07:28:35;1004.36;;;19.67;69.58
54144;BME280;40050;47.324;18.792;2022-09-01T07:30:40;1004.34;;;19.66;69.80
54144;BME280;40050;47.324;18.792;2022-09-01T07:32:41;1004.34;;;19.67;69.96
54144;BME280;40050;47.324;18.792;2022-09-01T07:34:42;1004.32;;;19.64;70.13
54144;BME280;40050;47.324;18.792;2022-09-01T07:36:43;1004.32;;;19.68;70.37
54144;BME280;40050;47.324;18.792;2022-09-01T07:38:45;1004.34;;;19.68;70.51
54144;BME280;40050;47.324;18.792;2022-09-01T07:40:46;1004.24;;;19.71;70.93
54144;BME280;40050;47.324;18.792;2022-09-01T07:42:52;1004.23;;;19.74;70.70
54144;BME280;40050;47.324;18.792;2022-09-01T07:44:53;1004.25;;;19.79;70.53
54144;BME280;40050;47.324;18.792;2022-09-01T07:46:54;1004.20;;;19.82;70.39
54144;BME280;40050;47.324;18.792;2022-09-01T07:48:55;1004.15;;;19.84;69.75
54144;BME280;40050;47.324;18.792;2022-09-01T07:50:56;1004.23;;;19.88;68.43
54144;BME280;40050;47.324;18.792;2022-09-01T07:52:57;1004.25;;;19.88;69.34
54144;BME280;40050;47.324;18.792;2022-09-01T07:54:58;1004.28;;;19.91;69.81
54144;BME280;40050;47.324;18.792;2022-09-01T07:56:59;1004.32;;;19.97;70.16
54144;BME280;40050;47.324;18.792;2022-09-01T07:59:00;1004.33;;;20.01;69.71
54144;BME280;40050;47.324;18.792;2022-09-01T08:01:05;1004.33;;;20.02;70.30
54144;BME280;40050;47.324;18.792;2022-09-01T08:03:06;1004.32;;;20.07;68.63
54144;BME280;40050;47.324;18.792;2022-09-01T08:05:08;1004.34;;;20.08;68.90
54144;BME280;40050;47.324;18.792;2022-09-01T08:07:09;1004.36;;;20.10;69.67
54144;BME280;40050;47.324;18.792;2022-09-01T08:09:10;1004.37;;;20.12;69.53
54144;BME280;40050;47.324;18.792;2022-09-01T08:11:14;1004.31;;;20.15;68.84
54144;BME280;40050;47.324;18.792;2022-09-01T08:13:16;1004.34;;;20.20;68.64
54144;BME280;40050;47.324;18.792;2022-09-01T08:15:18;1004.38;;;20.18;68.71
54144;BME280;40050;47.324;18.792;2022-09-01T08:17:18;1004.42;;;20.24;68.71
54144;BME280;40050;47.324;18.792;2022-09-01T08:19:19;1004.46;;;20.23;67.53
54144;BME280;40050;47.324;18.792;2022-09-01T08:21:21;1004.47;;;20.23;68.42
54144;BME280;40050;47.324;18.792;2022-09-01T08:23:22;1004.49;;;20.24;68.13
54144;BME280;40050;47.324;18.792;2022-09-01T08:25:23;1004.54;;;20.29;68.81
54144;BME280;40050;47.324;18.792;2022-09-01T08:27:30;1004.55;;;20.37;68.16
54144;BME280;40050;47.324;18.792;2022-09-01T08:29:42;1004.53;;;20.38;67.01
54144;BME280;40050;47.324;18.792;2022-09-01T08:31:52;1004.53;;;20.37;66.79
54144;BME280;40050;47.324;18.792;2022-09-01T08:33:53;1004.56;;;20.30;67.26
54144;BME280;40050;47.324;18.792;2022-09-01T08:35:54;1004.39;;;20.24;67.57
54144;BME280;40050;47.324;18.792;2022-09-01T08:37:56;1004.60;;;20.42;66.89
54144;BME280;40050;47.324;18.792;2022-09-01T08:39:57;1004.61;;;20.40;66.67
54144;BME280;40050;47.324;18.792;2022-09-01T08:42:07;1004.57;;;20.42;67.37
54144;BME280;40050;47.324;18.792;2022-09-01T08:49:19;1004.59;;;20.58;65.42
54144;BME280;40050;47.324;18.792;2022-09-01T08:51:48;1004.58;;;20.59;66.19
54144;BME280;40050;47.324;18.792;2022-09-01T08:54:37;1004.54;;;20.55;66.30
54144;BME280;40050;47.324;18.792;2022-09-01T08:56:03;1004.56;;;20.54;66.72
54144;BME280;40050;47.324;18.792;2022-09-01T08:58:05;1004.57;;;20.58;66.50
54144;BME280;40050;47.324;18.792;2022-09-01T09:00:09;1004.59;;;20.58;67.00
54144;BME280;40050;47.324;18.792;2022-09-01T09:02:22;1004.63;;;20.64;66.40
54144;BME280;40050;47.324;18.792;2022-09-01T09:04:32;1004.62;;;20.65;66.48
54144;BME280;40050;47.324;18.792;2022-09-01T09:06:44;1004.58;;;20.66;66.27
54144;BME280;40050;47.324;18.792;2022-09-01T09:11:05;1004.48;;;20.76;67.14
54144;BME280;40050;47.324;18.792;2022-09-01T09:17:48;1004.35;;;20.95;65.37
54144;BME280;40050;47.324;18.792;2022-09-01T09:19:52;1004.29;;;20.94;65.19
54144;BME280;40050;47.324;18.792;2022-09-01T09:21:53;1004.31;;;20.98;65.95
54144;BME280;40050;47.324;18.792;2022-09-01T09:23:58;1004.34;;;21.01;65.54
54144;BME280;40050;47.324;18.792;2022-09-01T09:26:00;1004.29;;;21.03;64.45
54144;BME280;40050;47.324;18.792;2022-09-01T09:28:01;1004.31;;;21.10;63.40
54144;BME280;40050;47.324;18.792;2022-09-01T09:30:06;1004.29;;;21.12;63.64
54144;BME280;40050;47.324;18.792;2022-09-01T09:32:08;1004.27;;;21.16;63.87
54144;BME280;40050;47.324;18.792;2022-09-01T09:34:15;1004.27;;;21.19;63.99
54144;BME280;40050;47.324;18.792;2022-09-01T09:36:18;1004.29;;;21.27;63.42
54144;BME280;40050;47.324;18.792;2022-09-01T09:38:21;1004.24;;;21.31;62.13
54144;BME280;40050;47.324;18.792;2022-09-01T09:40:23;1004.28;;;21.41;62.53
54144;BME280;40050;47.324;18.792;2022-09-01T09:42:25;1004.30;;;21.46;63.38
54144;BME280;40050;47.324;18.792;2022-09-01T09:44:26;1004.35;;;21.47;62.10
54144;BME280;40050;47.324;18.792;2022-09-01T09:46:35;1004.25;;;21.47;62.22
54144;BME280;40050;47.324;18.792;2022-09-01T09:48:36;1004.25;;;21.51;60.88
54144;BME280;40050;47.324;18.792;2022-09-01T09:50:38;1004.21;;;21.56;61.62
54144;BME280;40050;47.324;18.792;2022-09-01T09:52:39;1004.18;;;21.64;60.95
54144;BME280;40050;47.324;18.792;2022-09-01T09:54:56;1004.26;;;21.73;61.89
54144;BME280;40050;47.324;18.792;2022-09-01T09:57:04;1004.26;;;21.75;62.88
54144;BME280;40050;47.324;18.792;2022-09-01T09:59:15;1004.21;;;21.80;61.81
54144;BME280;40050;47.324;18.792;2022-09-01T10:03:43;1004.21;;;22.13;62.04
54144;BME280;40050;47.324;18.792;2022-09-01T10:05:48;1004.17;;;22.22;61.26
54144;BME280;40050;47.324;18.792;2022-09-01T10:07:49;1004.18;;;22.32;61.84
54144;BME280;40050;47.324;18.792;2022-09-01T10:09:51;1004.20;;;22.43;61.34
54144;BME280;40050;47.324;18.792;2022-09-01T10:11:56;1004.21;;;22.55;60.81
54144;BME280;40050;47.324;18.792;2022-09-01T10:13:58;1004.21;;;22.64;62.05
54144;BME280;40050;47.324;18.792;2022-09-01T10:16:00;1004.15;;;22.72;60.55
54144;BME280;40050;47.324;18.792;2022-09-01T10:18:09;1004.19;;;22.82;60.47
54144;BME280;40050;47.324;18.792;2022-09-01T10:20:14;1004.22;;;22.93;60.05
54144;BME280;40050;47.324;18.792;2022-09-01T10:22:16;1004.21;;;22.99;57.57
54144;BME280;40050;47.324;18.792;2022-09-01T10:24:18;1004.15;;;23.03;57.55
54144;BME280;40050;47.324;18.792;2022-09-01T10:26:26;1004.11;;;23.16;58.85
54144;BME280;40050;47.324;18.792;2022-09-01T10:28:29;1004.05;;;23.22;55.78
54144;BME280;40050;47.324;18.792;2022-09-01T10:30:32;1003.86;;;23.15;54.08
54144;BME280;40050;47.324;18.792;2022-09-01T10:32:41;1003.94;;;23.22;54.35
54144;BME280;40050;47.324;18.792;2022-09-01T10:34:43;1003.97;;;23.25;53.78
54144;BME280;40050;47.324;18.792;2022-09-01T10:36:45;1003.97;;;23.26;54.37
54144;BME280;40050;47.324;18.792;2022-09-01T10:38:46;1003.97;;;23.29;53.97
54144;BME280;40050;47.324;18.792;2022-09-01T10:40:48;1003.98;;;23.27;53.93
54144;BME280;40050;47.324;18.792;2022-09-01T10:42:50;1003.98;;;23.38;53.99
54144;BME280;40050;47.324;18.792;2022-09-01T10:44:57;1003.97;;;23.49;53.14
54144;BME280;40050;47.324;18.792;2022-09-01T10:47:23;1004.02;;;23.57;54.24
54144;BME280;40050;47.324;18.792;2022-09-01T10:51:40;1003.91;;;23.74;51.89
54144;BME280;40050;47.324;18.792;2022-09-01T10:53:42;1003.90;;;23.73;51.34
54144;BME280;40050;47.324;18.792;2022-09-01T10:55:45;1003.93;;;23.78;51.31
54144;BME280;40050;47.324;18.792;2022-09-01T10:57:49;1003.92;;;23.78;52.21
54144;BME280;40050;47.324;18.792;2022-09-01T10:59:54;1003.85;;;23.81;50.80
54144;BME280;40050;47.324;18.792;2022-09-01T11:04:08;1003.89;;;23.93;52.22
54144;BME280;40050;47.324;18.792;2022-09-01T11:06:10;1003.92;;;24.03;50.67